sensor_id;sensor_type;location;lat;lon;timestamp;pressure;altitude;pressure_sealevel;temperature;humidity
69848;BME280;57143;55.940;37.496;2023-02-15T00:02:02;97103.97;;;-1.83;100.00
69848;BME280;57143;55.940;37.496;2023-02-15T00:04:30;97030.28;;;-2.33;100.00
69848;BME280;57143;55.940;37.496;2023-02-15T00:07:11;97082.34;;;-1.86;100.00
69848;BME280;57143;55.940;37.496;2023-02-15T00:09:38;97096.03;;;-1.83;100.00
69848;BME280;57143;55.940;37.496;2023-02-15T00:12:05;97119.13;;;-1.90;100.00
69848;BME280;57143;55.940;37.496;2023-02-15T00:14:34;97116.06;;;-1.87;100.00
69848;BME280;57143;55.940;37.496;2023-02-15T00:17:01;97123.19;;;-1.87;100.00
69848;BME280;57143;55.940;37.496;2023-02-15T00:19:29;97047.63;;;-2.30;100.00
69848;BME280;57143;55.940;37.496;2023-02-15T00:21:56;97112.78;;;-1.82;100.00
69848;BME280;57143;55.940;37.496;2023-02-15T00:24:23;97118.91;;;-1.88;100.00
69848;BME280;57143;55.940;37.496;2023-02-15T00:26:51;97104.81;;;-1.95;100.00
69848;BME280;57143;55.940;37.496;2023-02-15T00:29:19;97110.94;;;-1.88;100.00
69848;BME280;57143;55.940;37.496;2023-02-15T00:31:48;97138.28;;;-1.94;100.00
69848;BME280;57143;55.940;37.496;2023-02-15T00:34:18;97087.84;;;-2.07;100.00
69848;BME280;57143;55.940;37.496;2023-02-15T00:36:46;97122.78;;;-1.91;100.00
69848;BME280;57143;55.940;37.496;2023-02-15T00:39:15;97124.19;;;-1.95;100.00
69848;BME280;57143;55.940;37.496;2023-02-15T00:41:43;97042.94;;;-2.28;100.00
69848;BME280;57143;55.940;37.496;2023-02-15T00:44:11;97029.81;;;-2.56;100.00
69848;BME280;57143;55.940;37.496;2023-02-15T00:46:39;97125.44;;;-1.97;100.00
69848;BME280;57143;55.940;37.496;2023-02-15T00:49:10;97052.91;;;-2.37;100.00
69848;BME280;57143;55.940;37.496;2023-02-15T00:51:38;97126.63;;;-2.06;100.00
69848;BME280;57143;55.940;37.496;2023-02-15T00:54:06;97144.78;;;-2.03;100.00
69848;BME280;57143;55.940;37.496;2023-02-15T00:56:33;97102.69;;;-2.33;100.00
69848;BME280;57143;55.940;37.496;2023-02-15T00:59:00;97167.25;;;-2.12;100.00
69848;BME280;57143;55.940;37.496;2023-02-15T01:01:28;97146.81;;;-2.18;100.00
69848;BME280;57143;55.940;37.496;2023-02-15T01:03:56;97180.31;;;-2.04;100.00
69848;BME280;57143;55.940;37.496;2023-02-15T01:06:25;97147.44;;;-2.16;100.00
69848;BME280;57143;55.940;37.496;2023-02-15T01:08:52;97151.09;;;-2.17;100.00
69848;BME280;57143;55.940;37.496;2023-02-15T01:11:21;97097.13;;;-2.57;100.00
69848;BME280;57143;55.940;37.496;2023-02-15T01:13:51;97189.94;;;-1.97;100.00
69848;BME280;57143;55.940;37.496;2023-02-15T01:16:19;97210.13;;;-2.02;100.00
69848;BME280;57143;55.940;37.496;2023-02-15T01:18:47;97218.09;;;-1.96;100.00
69848;BME280;57143;55.940;37.496;2023-02-15T01:21:15;97188.47;;;-2.12;100.00
69848;BME280;57143;55.940;37.496;2023-02-15T01:23:44;96585.97;;;-2.04;100.00
69848;BME280;57143;55.940;37.496;2023-02-15T01:26:12;96414.81;;;-2.31;100.00
69848;BME280;57143;55.940;37.496;2023-02-15T01:28:40;96537.16;;;-1.97;100.00
69848;BME280;57143;55.940;37.496;2023-02-15T01:31:08;96583.00;;;-2.14;100.00
69848;BME280;57143;55.940;37.496;2023-02-15T01:33:35;96704.13;;;-2.02;100.00
69848;BME280;57143;55.940;37.496;2023-02-15T01:36:03;96730.94;;;-2.16;100.00
69848;BME280;57143;55.940;37.496;2023-02-15T01:38:31;96745.28;;;-2.30;100.00
69848;BME280;57143;55.940;37.496;2023-02-15T01:41:00;96831.69;;;-2.03;100.00
69848;BME280;57143;55.940;37.496;2023-02-15T01:43:41;96875.19;;;-2.04;100.00
69848;BME280;57143;55.940;37.496;2023-02-15T01:46:10;96923.13;;;-1.99;100.00
69848;BME280;57143;55.940;37.496;2023-02-15T01:48:40;96940.72;;;-2.18;100.00
69848;BME280;57143;55.940;37.496;2023-02-15T01:51:11;96987.41;;;-2.10;100.00
69848;BME280;57143;55.940;37.496;2023-02-15T01:53:41;96997.22;;;-2.24;100.00
69848;BME280;57143;55.940;37.496;2023-02-15T01:56:13;97008.88;;;-2.31;100.00
69848;BME280;57143;55.940;37.496;2023-02-15T01:58:42;97025.78;;;-2.39;100.00
69848;BME280;57143;55.940;37.496;2023-02-15T02:01:10;97095.41;;;-2.11;100.00
69848;BME280;57143;55.940;37.496;2023-02-15T02:03:43;97105.59;;;-2.21;100.00
69848;BME280;57143;55.940;37.496;2023-02-15T02:06:16;97147.22;;;-2.21;100.00
69848;BME280;57143;55.940;37.496;2023-02-15T02:08:44;97145.13;;;-2.26;100.00
69848;BME280;57143;55.940;37.496;2023-02-15T02:11:14;97190.91;;;-2.17;100.00
69848;BME280;57143;55.940;37.496;2023-02-15T02:13:43;97125.63;;;-2.66;100.00
69848;BME280;57143;55.940;37.496;2023-02-15T02:16:37;97209.44;;;-2.24;100.00
69848;BME280;57143;55.940;37.496;2023-02-15T02:22:27;97234.69;;;-2.35;100.00
69848;BME280;57143;55.940;37.496;2023-02-15T02:27:59;97287.59;;;-2.20;100.00
69848;BME280;57143;55.940;37.496;2023-02-15T02:30:45;97292.47;;;-2.30;100.00
69848;BME280;57143;55.940;37.496;2023-02-15T02:33:34;97296.53;;;-2.27;100.00
69848;BME280;57143;55.940;37.496;2023-02-15T02:36:11;97294.28;;;-2.30;100.00
69848;BME280;57143;55.940;37.496;2023-02-15T02:38:52;97309.50;;;-2.46;100.00
69848;BME280;57143;55.940;37.496;2023-02-15T02:41:28;97372.66;;;-2.28;100.00
69848;BME280;57143;55.940;37.496;2023-02-15T02:44:04;97335.91;;;-2.59;100.00
69848;BME280;57143;55.940;37.496;2023-02-15T02:46:35;97341.44;;;-2.81;100.00
69848;BME280;57143;55.940;37.496;2023-02-15T02:49:05;97363.16;;;-2.71;100.00
69848;BME280;57143;55.940;37.496;2023-02-15T02:51:32;97371.22;;;-2.79;100.00
69848;BME280;57143;55.940;37.496;2023-02-15T02:54:01;97437.72;;;-2.32;100.00
69848;BME280;57143;55.940;37.496;2023-02-15T02:56:33;97435.97;;;-2.46;100.00
69848;BME280;57143;55.940;37.496;2023-02-15T02:59:06;97454.47;;;-2.53;100.00
69848;BME280;57143;55.940;37.496;2023-02-15T03:01:39;97452.69;;;-2.46;100.00
69848;BME280;57143;55.940;37.496;2023-02-15T03:04:11;97382.84;;;-2.80;100.00
69848;BME280;57143;55.940;37.496;2023-02-15T03:06:45;97435.91;;;-2.53;100.00
69848;BME280;57143;55.940;37.496;2023-02-15T03:09:17;97412.50;;;-2.70;100.00
69848;BME280;57143;55.940;37.496;2023-02-15T03:11:48;97398.94;;;-2.61;100.00
69848;BME280;57143;55.940;37.496;2023-02-15T03:14:17;97428.94;;;-2.54;100.00
69848;BME280;57143;55.940;37.496;2023-02-15T03:16:47;97430.81;;;-2.75;100.00
69848;BME280;57143;55.940;37.496;2023-02-15T03:19:25;97433.53;;;-2.41;100.00
69848;BME280;57143;55.940;37.496;2023-02-15T03:21:57;97425.75;;;-2.49;100.00
69848;BME280;57143;55.940;37.496;2023-02-15T03:24:37;97430.47;;;-2.45;100.00
69848;BME280;57143;55.940;37.496;2023-02-15T03:27:10;97438.16;;;-2.50;100.00
69848;BME280;57143;55.940;37.496;2023-02-15T03:29:39;97422.06;;;-2.69;100.00
69848;BME280;57143;55.940;37.496;2023-02-15T03:32:09;97447.25;;;-2.59;100.00
69848;BME280;57143;55.940;37.496;2023-02-15T03:34:39;97407.97;;;-2.97;100.00
69848;BME280;57143;55.940;37.496;2023-02-15T03:37:11;97474.16;;;-2.62;100.00
69848;BME280;57143;55.940;37.496;2023-02-15T03:39:44;97442.41;;;-2.97;100.00
69848;BME280;57143;55.940;37.496;2023-02-15T03:42:17;97511.41;;;-2.70;100.00
69848;BME280;57143;55.940;37.496;2023-02-15T03:44:51;97520.66;;;-2.80;100.00
69848;BME280;57143;55.940;37.496;2023-02-15T03:47:24;97505.38;;;-2.99;100.00
69848;BME280;57143;55.940;37.496;2023-02-15T03:49:57;97568.91;;;-2.70;100.00
69848;BME280;57143;55.940;37.496;2023-02-15T03:52:28;97577.41;;;-2.75;100.00
69848;BME280;57143;55.940;37.496;2023-02-15T03:54:56;97605.94;;;-2.77;100.00
69848;BME280;57143;55.940;37.496;2023-02-15T03:57:25;97617.81;;;-2.73;100.00
69848;BME280;57143;55.940;37.496;2023-02-15T04:00:14;97629.97;;;-2.78;100.00
69848;BME280;57143;55.940;37.496;2023-02-15T04:03:11;97640.03;;;-2.88;100.00
69848;BME280;57143;55.940;37.496;2023-02-15T04:05:42;97643.31;;;-2.86;100.00
69848;BME280;57143;55.940;37.496;2023-02-15T04:08:09;97655.94;;;-2.88;100.00
69848;BME280;57143;55.940;37.496;2023-02-15T04:10:37;97687.84;;;-2.82;100.00
69848;BME280;57143;55.940;37.496;2023-02-15T04:13:18;97660.84;;;-3.00;100.00
69848;BME280;57143;55.940;37.496;2023-02-15T04:15:46;97709.31;;;-2.77;100.00
69848;BME280;57143;55.940;37.496;2023-02-15T04:18:31;97725.41;;;-2.78;100.00
69848;BME280;57143;55.940;37.496;2023-02-15T04:21:18;97722.75;;;-2.78;100.00
69848;BME280;57143;55.940;37.496;2023-02-15T04:24:03;97738.81;;;-2.94;100.00
69848;BME280;57143;55.940;37.496;2023-02-15T04:26:48;97764.59;;;-2.88;100.00
69848;BME280;57143;55.940;37.496;2023-02-15T04:29:18;97732.41;;;-3.00;100.00
69848;BME280;57143;55.940;37.496;2023-02-15T04:31:46;97734.88;;;-2.98;100.00
69848;BME280;57143;55.940;37.496;2023-02-15T04:34:13;97752.06;;;-2.94;100.00
69848;BME280;57143;55.940;37.496;2023-02-15T04:36:42;97755.69;;;-3.10;100.00
69848;BME280;57143;55.940;37.496;2023-02-15T04:39:12;97768.69;;;-3.00;100.00
69848;BME280;57143;55.940;37.496;2023-02-15T04:41:39;97757.63;;;-3.04;100.00
69848;BME280;57143;55.940;37.496;2023-02-15T04:44:06;97756.97;;;-3.06;100.00
69848;BME280;57143;55.940;37.496;2023-02-15T04:46:34;97743.28;;;-2.95;100.00
69848;BME280;57143;55.940;37.496;2023-02-15T04:49:01;97762.94;;;-3.04;100.00
69848;BME280;57143;55.940;37.496;2023-02-15T04:51:29;97778.97;;;-3.05;100.00
69848;BME280;57143;55.940;37.496;2023-02-15T04:53:57;97651.81;;;-3.72;100.00
69848;BME280;57143;55.940;37.496;2023-02-15T04:56:25;97747.06;;;-3.26;100.00
69848;BME280;57143;55.940;37.496;2023-02-15T04:58:52;97767.47;;;-3.12;100.00
69848;BME280;57143;55.940;37.496;2023-02-15T05:01:19;97748.16;;;-3.21;100.00
69848;BME280;57143;55.940;37.496;2023-02-15T05:03:46;97750.78;;;-3.35;100.00
69848;BME280;57143;55.940;37.496;2023-02-15T05:06:13;97787.09;;;-3.21;100.00
69848;BME280;57143;55.940;37.496;2023-02-15T05:08:41;97721.53;;;-3.42;100.00
69848;BME280;57143;55.940;37.496;2023-02-15T05:11:09;97782.34;;;-3.11;100.00
69848;BME280;57143;55.940;37.496;2023-02-15T05:13:36;97785.84;;;-3.11;100.00
69848;BME280;57143;55.940;37.496;2023-02-15T05:16:04;97790.31;;;-3.11;100.00
69848;BME280;57143;55.940;37.496;2023-02-15T05:18:31;97780.25;;;-3.16;100.00
69848;BME280;57143;55.940;37.496;2023-02-15T05:20:59;97803.19;;;-3.08;100.00
69848;BME280;57143;55.940;37.496;2023-02-15T05:23:26;97791.06;;;-3.03;100.00
69848;BME280;57143;55.940;37.496;2023-02-15T05:25:53;97799.84;;;-3.02;100.00
69848;BME280;57143;55.940;37.496;2023-02-15T05:28:39;97744.00;;;-3.38;100.00
69848;BME280;57143;55.940;37.496;2023-02-15T05:31:08;97783.03;;;-3.32;100.00
69848;BME280;57143;55.940;37.496;2023-02-15T05:33:37;97651.34;;;-4.20;100.00
69848;BME280;57143;55.940;37.496;2023-02-15T05:36:05;97746.19;;;-3.64;100.00
69848;BME280;57143;55.940;37.496;2023-02-15T05:38:33;97795.81;;;-3.35;100.00
69848;BME280;57143;55.940;37.496;2023-02-15T05:41:02;97840.25;;;-3.00;100.00
69848;BME280;57143;55.940;37.496;2023-02-15T05:43:30;97833.75;;;-2.98;100.00
69848;BME280;57143;55.940;37.496;2023-02-15T05:45:59;97843.31;;;-2.97;100.00
69848;BME280;57143;55.940;37.496;2023-02-15T05:48:27;97837.53;;;-3.15;100.00
69848;BME280;57143;55.940;37.496;2023-02-15T05:50:58;97843.94;;;-3.09;100.00
69848;BME280;57143;55.940;37.496;2023-02-15T05:53:26;97831.56;;;-3.17;100.00
69848;BME280;57143;55.940;37.496;2023-02-15T05:55:53;97868.09;;;-3.04;100.00
69848;BME280;57143;55.940;37.496;2023-02-15T05:58:25;97792.09;;;-3.49;100.00
69848;BME280;57143;55.940;37.496;2023-02-15T06:00:52;97844.91;;;-3.33;100.00
69848;BME280;57143;55.940;37.496;2023-02-15T06:03:21;97866.25;;;-3.04;100.00
69848;BME280;57143;55.940;37.496;2023-02-15T06:05:49;97862.88;;;-2.98;100.00
69848;BME280;57143;55.940;37.496;2023-02-15T06:08:16;97865.31;;;-2.88;100.00
69848;BME280;57143;55.940;37.496;2023-02-15T06:10:45;97885.72;;;-2.97;100.00
69848;BME280;57143;55.940;37.496;2023-02-15T06:13:12;97889.28;;;-3.04;100.00
69848;BME280;57143;55.940;37.496;2023-02-15T06:15:43;97898.75;;;-3.10;100.00
69848;BME280;57143;55.940;37.496;2023-02-15T06:18:13;97879.69;;;-3.28;100.00
69848;BME280;57143;55.940;37.496;2023-02-15T06:20:41;97917.41;;;-3.03;100.00
69848;BME280;57143;55.940;37.496;2023-02-15T06:23:09;97925.16;;;-2.94;100.00
69848;BME280;57143;55.940;37.496;2023-02-15T06:25:36;97923.47;;;-2.72;100.00
69848;BME280;57143;55.940;37.496;2023-02-15T06:28:06;97924.31;;;-2.72;100.00
69848;BME280;57143;55.940;37.496;2023-02-15T06:30:34;97938.25;;;-2.78;100.00
69848;BME280;57143;55.940;37.496;2023-02-15T06:33:01;97938.22;;;-2.92;100.00
69848;BME280;57143;55.940;37.496;2023-02-15T06:35:32;97957.06;;;-2.65;100.00
69848;BME280;57143;55.940;37.496;2023-02-15T06:38:00;97955.75;;;-2.69;100.00
69848;BME280;57143;55.940;37.496;2023-02-15T06:40:28;97938.31;;;-2.86;100.00
69848;BME280;57143;55.940;37.496;2023-02-15T06:42:55;97975.56;;;-2.57;100.00
69848;BME280;57143;55.940;37.496;2023-02-15T06:45:25;97919.06;;;-3.25;100.00
69848;BME280;57143;55.940;37.496;2023-02-15T06:47:53;97962.00;;;-2.84;100.00
69848;BME280;57143;55.940;37.496;2023-02-15T06:50:20;97973.63;;;-2.85;100.00
69848;BME280;57143;55.940;37.496;2023-02-15T06:52:49;97961.13;;;-2.77;100.00
69848;BME280;57143;55.940;37.496;2023-02-15T06:55:20;98006.84;;;-2.75;100.00
69848;BME280;57143;55.940;37.496;2023-02-15T06:57:47;97997.81;;;-2.66;100.00
69848;BME280;57143;55.940;37.496;2023-02-15T07:00:15;98000.78;;;-2.61;100.00
69848;BME280;57143;55.940;37.496;2023-02-15T07:02:43;97975.25;;;-2.84;100.00
69848;BME280;57143;55.940;37.496;2023-02-15T07:05:10;98012.94;;;-2.66;100.00
69848;BME280;57143;55.940;37.496;2023-02-15T07:07:37;98018.88;;;-2.64;100.00
69848;BME280;57143;55.940;37.496;2023-02-15T07:10:06;98029.00;;;-2.68;100.00
69848;BME280;57143;55.940;37.496;2023-02-15T07:12:34;98006.59;;;-2.65;100.00
69848;BME280;57143;55.940;37.496;2023-02-15T07:15:07;98035.69;;;-2.49;100.00
69848;BME280;57143;55.940;37.496;2023-02-15T07:17:35;98032.06;;;-2.56;100.00
69848;BME280;57143;55.940;37.496;2023-02-15T07:20:04;98031.72;;;-2.53;100.00
69848;BME280;57143;55.940;37.496;2023-02-15T07:22:33;98019.09;;;-2.28;100.00
69848;BME280;57143;55.940;37.496;2023-02-15T07:25:02;98038.34;;;-2.26;100.00
69848;BME280;57143;55.940;37.496;2023-02-15T07:27:30;98032.47;;;-2.22;100.00
69848;BME280;57143;55.940;37.496;2023-02-15T07:29:59;98042.16;;;-2.29;100.00
69848;BME280;57143;55.940;37.496;2023-02-15T07:32:27;98049.59;;;-2.24;100.00
69848;BME280;57143;55.940;37.496;2023-02-15T07:34:55;98040.41;;;-2.37;100.00
69848;BME280;57143;55.940;37.496;2023-02-15T07:37:22;98025.91;;;-2.49;100.00
69848;BME280;57143;55.940;37.496;2023-02-15T07:39:49;98032.38;;;-2.51;100.00
69848;BME280;57143;55.940;37.496;2023-02-15T07:42:16;98043.50;;;-2.56;100.00
69848;BME280;57143;55.940;37.496;2023-02-15T07:44:45;98046.28;;;-2.49;100.00
69848;BME280;57143;55.940;37.496;2023-02-15T07:47:14;98058.19;;;-2.45;100.00
69848;BME280;57143;55.940;37.496;2023-02-15T07:49:41;98054.59;;;-2.52;100.00
69848;BME280;57143;55.940;37.496;2023-02-15T07:52:08;98053.94;;;-2.54;100.00
69848;BME280;57143;55.940;37.496;2023-02-15T07:54:35;98064.78;;;-2.41;100.00
69848;BME280;57143;55.940;37.496;2023-02-15T07:57:03;98078.16;;;-2.35;100.00
69848;BME280;57143;55.940;37.496;2023-02-15T07:59:30;98083.59;;;-2.51;100.00
69848;BME280;57143;55.940;37.496;2023-02-15T08:01:57;98073.47;;;-2.47;100.00
69848;BME280;57143;55.940;37.496;2023-02-15T08:04:26;98071.16;;;-2.27;100.00
69848;BME280;57143;55.940;37.496;2023-02-15T08:06:53;98079.47;;;-2.30;100.00
69848;BME280;57143;55.940;37.496;2023-02-15T08:09:21;98106.97;;;-2.54;100.00
69848;BME280;57143;55.940;37.496;2023-02-15T08:11:49;98096.13;;;-2.45;100.00
69848;BME280;57143;55.940;37.496;2023-02-15T08:14:17;98050.53;;;-2.63;100.00
69848;BME280;57143;55.940;37.496;2023-02-15T08:16:47;98080.19;;;-2.37;100.00
69848;BME280;57143;55.940;37.496;2023-02-15T08:19:16;98098.16;;;-2.24;100.00
69848;BME280;57143;55.940;37.496;2023-02-15T08:21:46;98106.00;;;-2.30;100.00
69848;BME280;57143;55.940;37.496;2023-02-15T08:24:15;98106.06;;;-2.39;100.00
69848;BME280;57143;55.940;37.496;2023-02-15T08:26:42;98098.88;;;-2.30;100.00
69848;BME280;57143;55.940;37.496;2023-02-15T08:29:13;98109.72;;;-2.17;100.00
69848;BME280;57143;55.940;37.496;2023-02-15T08:31:40;98131.50;;;-2.29;100.00
69848;BME280;57143;55.940;37.496;2023-02-15T08:34:09;98105.59;;;-2.42;100.00
69848;BME280;57143;55.940;37.496;2023-02-15T08:36:37;98145.97;;;-2.32;100.00
69848;BME280;57143;55.940;37.496;2023-02-15T08:39:06;98147.09;;;-2.26;100.00
69848;BME280;57143;55.940;37.496;2023-02-15T08:41:34;98121.97;;;-2.39;100.00
69848;BME280;57143;55.940;37.496;2023-02-15T08:44:04;98120.19;;;-2.46;100.00
69848;BME280;57143;55.940;37.496;2023-02-15T08:46:33;98132.16;;;-2.27;100.00
69848;BME280;57143;55.940;37.496;2023-02-15T08:49:01;98102.50;;;-2.31;100.00
69848;BME280;57143;55.940;37.496;2023-02-15T08:51:30;98143.31;;;-2.32;100.00
69848;BME280;57143;55.940;37.496;2023-02-15T08:53:59;98135.75;;;-2.12;100.00
69848;BME280;57143;55.940;37.496;2023-02-15T08:56:29;98132.38;;;-1.84;100.00
69848;BME280;57143;55.940;37.496;2023-02-15T08:58:58;98092.75;;;-1.71;100.00
69848;BME280;57143;55.940;37.496;2023-02-15T09:01:27;98113.47;;;-1.66;100.00
69848;BME280;57143;55.940;37.496;2023-02-15T09:03:56;98119.16;;;-1.69;100.00
69848;BME280;57143;55.940;37.496;2023-02-15T09:06:24;98166.59;;;-1.66;100.00
69848;BME280;57143;55.940;37.496;2023-02-15T09:08:53;98150.84;;;-1.68;100.00
69848;BME280;57143;55.940;37.496;2023-02-15T09:11:22;98155.53;;;-1.55;100.00
69848;BME280;57143;55.940;37.496;2023-02-15T09:13:52;98173.91;;;-1.68;100.00
69848;BME280;57143;55.940;37.496;2023-02-15T09:16:21;98187.88;;;-1.74;100.00
69848;BME280;57143;55.940;37.496;2023-02-15T09:18:49;98171.97;;;-1.97;100.00
69848;BME280;57143;55.940;37.496;2023-02-15T09:21:18;98199.22;;;-1.80;100.00
69848;BME280;57143;55.940;37.496;2023-02-15T09:23:49;98183.94;;;-2.01;100.00
69848;BME280;57143;55.940;37.496;2023-02-15T09:26:18;98198.63;;;-1.68;100.00
69848;BME280;57143;55.940;37.496;2023-02-15T09:28:45;98181.00;;;-1.83;100.00
69848;BME280;57143;55.940;37.496;2023-02-15T09:31:15;98193.50;;;-1.92;100.00
69848;BME280;57143;55.940;37.496;2023-02-15T09:33:44;98154.78;;;-2.09;100.00
69848;BME280;57143;55.940;37.496;2023-02-15T09:36:16;98123.16;;;-2.18;100.00
69848;BME280;57143;55.940;37.496;2023-02-15T09:38:44;98182.72;;;-1.68;100.00
69848;BME280;57143;55.940;37.496;2023-02-15T09:41:24;98180.53;;;-1.87;100.00
69848;BME280;57143;55.940;37.496;2023-02-15T09:44:00;98194.59;;;-2.09;100.00
69848;BME280;57143;55.940;37.496;2023-02-15T09:46:44;98178.09;;;-2.27;100.00
69848;BME280;57143;55.940;37.496;2023-02-15T09:49:22;98166.56;;;-2.11;100.00
69848;BME280;57143;55.940;37.496;2023-02-15T09:52:08;98171.50;;;-2.31;100.00
69848;BME280;57143;55.940;37.496;2023-02-15T09:54:58;98200.50;;;-2.29;100.00
69848;BME280;57143;55.940;37.496;2023-02-15T09:57:36;98215.13;;;-2.33;100.00
69848;BME280;57143;55.940;37.496;2023-02-15T10:00:12;98169.72;;;-2.39;100.00
69848;BME280;57143;55.940;37.496;2023-02-15T10:05:49;98204.09;;;-2.14;100.00
69848;BME280;57143;55.940;37.496;2023-02-15T10:08:47;98221.94;;;-2.08;100.00
69848;BME280;57143;55.940;37.496;2023-02-15T10:11:23;98165.34;;;-2.62;100.00
69848;BME280;57143;55.940;37.496;2023-02-15T10:14:32;98222.47;;;-2.13;100.00
69848;BME280;57143;55.940;37.496;2023-02-15T10:17:14;98210.00;;;-2.04;100.00
69848;BME280;57143;55.940;37.496;2023-02-15T10:19:55;98124.50;;;-2.45;100.00
69848;BME280;57143;55.940;37.496;2023-02-15T10:22:32;98213.44;;;-2.26;100.00
69848;BME280;57143;55.940;37.496;2023-02-15T10:25:27;98162.56;;;-2.30;100.00
69848;BME280;57143;55.940;37.496;2023-02-15T10:27:59;98170.25;;;-2.12;100.00
69848;BME280;57143;55.940;37.496;2023-02-15T10:30:35;98151.59;;;-2.04;100.00
69848;BME280;57143;55.940;37.496;2023-02-15T10:33:12;98155.78;;;-1.87;100.00
69848;BME280;57143;55.940;37.496;2023-02-15T10:35:50;98111.22;;;-2.14;100.00
69848;BME280;57143;55.940;37.496;2023-02-15T10:38:26;98087.22;;;-2.21;100.00
69848;BME280;57143;55.940;37.496;2023-02-15T10:41:08;98156.63;;;-1.87;100.00
69848;BME280;57143;55.940;37.496;2023-02-15T10:43:54;98074.56;;;-2.19;100.00
69848;BME280;57143;55.940;37.496;2023-02-15T10:46:40;98138.03;;;-1.87;100.00
69848;BME280;57143;55.940;37.496;2023-02-15T10:49:26;98168.41;;;-1.89;100.00
69848;BME280;57143;55.940;37.496;2023-02-15T10:52:10;98169.25;;;-1.89;100.00
69848;BME280;57143;55.940;37.496;2023-02-15T10:54:45;98129.78;;;-2.14;100.00
69848;BME280;57143;55.940;37.496;2023-02-15T10:57:19;98179.28;;;-1.99;100.00
69848;BME280;57143;55.940;37.496;2023-02-15T11:00:09;98175.22;;;-1.87;100.00
69848;BME280;57143;55.940;37.496;2023-02-15T11:03:02;98191.59;;;-2.06;100.00
69848;BME280;57143;55.940;37.496;2023-02-15T11:05:41;98178.56;;;-1.93;100.00
69848;BME280;57143;55.940;37.496;2023-02-15T11:08:16;98173.16;;;-2.30;100.00
69848;BME280;57143;55.940;37.496;2023-02-15T11:10:48;98191.06;;;-2.01;100.00
69848;BME280;57143;55.940;37.496;2023-02-15T11:13:19;98187.81;;;-2.11;100.00
69848;BME280;57143;55.940;37.496;2023-02-15T11:15:50;98169.97;;;-2.25;100.00
69848;BME280;57143;55.940;37.496;2023-02-15T11:18:23;98195.47;;;-2.16;100.00
69848;BME280;57143;55.940;37.496;2023-02-15T11:20:54;98168.81;;;-2.23;100.00
69848;BME280;57143;55.940;37.496;2023-02-15T11:23:25;98219.53;;;-2.18;100.00
69848;BME280;57143;55.940;37.496;2023-02-15T11:25:56;98205.31;;;-2.25;100.00
69848;BME280;57143;55.940;37.496;2023-02-15T11:28:29;98209.78;;;-2.25;100.00
69848;BME280;57143;55.940;37.496;2023-02-15T11:31:02;98225.56;;;-2.32;100.00
69848;BME280;57143;55.940;37.496;2023-02-15T11:33:37;98205.97;;;-2.23;100.00
69848;BME280;57143;55.940;37.496;2023-02-15T11:36:13;98199.50;;;-2.28;100.00
69848;BME280;57143;55.940;37.496;2023-02-15T11:38:44;98198.31;;;-2.26;100.00
69848;BME280;57143;55.940;37.496;2023-02-15T11:41:14;98206.13;;;-2.24;100.00
69848;BME280;57143;55.940;37.496;2023-02-15T11:43:49;98179.59;;;-2.24;100.00
69848;BME280;57143;55.940;37.496;2023-02-15T11:46:17;98208.97;;;-2.03;100.00
69848;BME280;57143;55.940;37.496;2023-02-15T11:48:46;98208.81;;;-2.33;100.00
69848;BME280;57143;55.940;37.496;2023-02-15T11:51:16;98272.91;;;-2.13;100.00
69848;BME280;57143;55.940;37.496;2023-02-15T11:53:46;98280.16;;;-2.07;100.00
69848;BME280;57143;55.940;37.496;2023-02-15T11:56:15;98296.44;;;-2.10;100.00
69848;BME280;57143;55.940;37.496;2023-02-15T11:58:45;98296.88;;;-1.98;100.00
69848;BME280;57143;55.940;37.496;2023-02-15T12:01:18;98351.59;;;-1.89;100.00
69848;BME280;57143;55.940;37.496;2023-02-15T12:03:50;98352.47;;;-1.97;100.00
69848;BME280;57143;55.940;37.496;2023-02-15T12:06:24;98360.41;;;-2.60;100.00
69848;BME280;57143;55.940;37.496;2023-02-15T12:09:01;98395.22;;;-2.63;100.00
69848;BME280;57143;55.940;37.496;2023-02-15T12:11:34;98414.28;;;-2.35;100.00
69848;BME280;57143;55.940;37.496;2023-02-15T12:14:04;98428.16;;;-2.17;100.00
69848;BME280;57143;55.940;37.496;2023-02-15T12:16:39;98379.66;;;-2.74;100.00
69848;BME280;57143;55.940;37.496;2023-02-15T12:19:18;98435.47;;;-2.43;100.00
69848;BME280;57143;55.940;37.496;2023-02-15T12:21:50;98374.34;;;-3.06;100.00
69848;BME280;57143;55.940;37.496;2023-02-15T12:24:22;98311.88;;;-3.24;100.00
69848;BME280;57143;55.940;37.496;2023-02-15T12:27:02;98423.22;;;-2.28;100.00
69848;BME280;57143;55.940;37.496;2023-02-15T12:29:31;98396.38;;;-2.33;100.00
69848;BME280;57143;55.940;37.496;2023-02-15T12:32:03;98385.56;;;-2.40;100.00
69848;BME280;57143;55.940;37.496;2023-02-15T12:34:32;98406.75;;;-2.15;100.00
69848;BME280;57143;55.940;37.496;2023-02-15T12:37:09;98387.00;;;-2.05;100.00
69848;BME280;57143;55.940;37.496;2023-02-15T12:39:51;98394.47;;;-2.08;100.00
69848;BME280;57143;55.940;37.496;2023-02-15T12:42:20;98316.97;;;-2.51;100.00
69848;BME280;57143;55.940;37.496;2023-02-15T12:44:56;98354.50;;;-2.15;100.00
69848;BME280;57143;55.940;37.496;2023-02-15T12:47:23;98293.13;;;-2.67;100.00
69848;BME280;57143;55.940;37.496;2023-02-15T12:50:08;98356.41;;;-2.31;100.00
69848;BME280;57143;55.940;37.496;2023-02-15T12:52:43;98344.63;;;-2.37;100.00
69848;BME280;57143;55.940;37.496;2023-02-15T12:55:20;98406.13;;;-2.17;100.00
69848;BME280;57143;55.940;37.496;2023-02-15T12:57:48;98401.97;;;-2.20;100.00
69848;BME280;57143;55.940;37.496;2023-02-15T13:00:28;98425.88;;;-2.28;100.00
69848;BME280;57143;55.940;37.496;2023-02-15T13:02:58;98361.25;;;-2.75;100.00
69848;BME280;57143;55.940;37.496;2023-02-15T13:05:30;98404.13;;;-2.40;100.00
69848;BME280;57143;55.940;37.496;2023-02-15T13:08:00;98395.03;;;-2.69;100.00
69848;BME280;57143;55.940;37.496;2023-02-15T13:10:31;98433.66;;;-2.26;100.00
69848;BME280;57143;55.940;37.496;2023-02-15T13:13:00;98359.09;;;-2.64;100.00